sensor_id;sensor_type;location;lat;lon;timestamp;P1;durP1;ratioP1;P2;durP2;ratioP2
64011;SDS011;50211;52.768;12.124;2023-04-28T00:00:16;6.10;;;2.40;;
64011;SDS011;50211;52.768;12.124;2023-04-28T00:02:42;3.97;;;2.87;;
64011;SDS011;50211;52.768;12.124;2023-04-28T00:05:07;3.87;;;2.50;;
64011;SDS011;50211;52.768;12.124;2023-04-28T00:07:33;4.17;;;2.70;;
64011;SDS011;50211;52.768;12.124;2023-04-28T00:09:59;6.17;;;3.20;;
64011;SDS011;50211;52.768;12.124;2023-04-28T00:12:24;4.83;;;2.80;;
64011;SDS011;50211;52.768;12.124;2023-04-28T00:14:50;5.30;;;2.80;;
64011;SDS011;50211;52.768;12.124;2023-04-28T00:17:15;4.30;;;2.90;;
64011;SDS011;50211;52.768;12.124;2023-04-28T00:19:41;6.37;;;2.87;;
64011;SDS011;50211;52.768;12.124;2023-04-28T00:22:06;4.93;;;2.50;;
64011;SDS011;50211;52.768;12.124;2023-04-28T00:24:32;4.27;;;2.30;;
64011;SDS011;50211;52.768;12.124;2023-04-28T00:27:00;3.60;;;2.17;;
64011;SDS011;50211;52.768;12.124;2023-04-28T00:29:27;4.40;;;2.60;;
64011;SDS011;50211;52.768;12.124;2023-04-28T00:31:53;3.40;;;2.20;;
64011;SDS011;50211;52.768;12.124;2023-04-28T00:34:18;3.30;;;2.40;;
64011;SDS011;50211;52.768;12.124;2023-04-28T00:36:43;4.90;;;2.60;;
64011;SDS011;50211;52.768;12.124;2023-04-28T00:39:09;3.90;;;2.20;;
64011;SDS011;50211;52.768;12.124;2023-04-28T00:41:35;6.63;;;2.53;;
64011;SDS011;50211;52.768;12.124;2023-04-28T00:44:00;4.17;;;2.63;;
64011;SDS011;50211;52.768;12.124;2023-04-28T00:46:27;4.10;;;2.50;;
64011;SDS011;50211;52.768;12.124;2023-04-28T00:48:55;8.47;;;3.27;;
64011;SDS011;50211;52.768;12.124;2023-04-28T00:51:21;4.03;;;2.83;;
64011;SDS011;50211;52.768;12.124;2023-04-28T00:53:47;4.20;;;2.73;;
64011;SDS011;50211;52.768;12.124;2023-04-28T00:56:12;3.47;;;2.97;;
64011;SDS011;50211;52.768;12.124;2023-04-28T00:58:38;5.73;;;2.53;;
64011;SDS011;50211;52.768;12.124;2023-04-28T01:01:04;5.90;;;3.20;;
64011;SDS011;50211;52.768;12.124;2023-04-28T01:03:32;4.40;;;3.00;;
64011;SDS011;50211;52.768;12.124;2023-04-28T01:05:59;5.80;;;3.07;;
64011;SDS011;50211;52.768;12.124;2023-04-28T01:08:31;5.10;;;2.77;;
64011;SDS011;50211;52.768;12.124;2023-04-28T01:10:58;4.43;;;2.73;;
64011;SDS011;50211;52.768;12.124;2023-04-28T01:13:24;4.40;;;2.47;;
64011;SDS011;50211;52.768;12.124;2023-04-28T01:15:50;5.07;;;2.57;;
64011;SDS011;50211;52.768;12.124;2023-04-28T01:18:16;4.40;;;2.57;;
64011;SDS011;50211;52.768;12.124;2023-04-28T01:20:42;5.13;;;2.47;;
64011;SDS011;50211;52.768;12.124;2023-04-28T01:23:11;6.20;;;2.20;;
64011;SDS011;50211;52.768;12.124;2023-04-28T01:25:37;4.63;;;2.20;;
64011;SDS011;50211;52.768;12.124;2023-04-28T01:28:02;3.27;;;2.47;;
64011;SDS011;50211;52.768;12.124;2023-04-28T01:30:28;3.23;;;2.37;;
64011;SDS011;50211;52.768;12.124;2023-04-28T01:32:53;4.13;;;2.67;;
64011;SDS011;50211;52.768;12.124;2023-04-28T01:35:19;3.90;;;2.30;;
64011;SDS011;50211;52.768;12.124;2023-04-28T01:37:45;2.87;;;2.37;;
64011;SDS011;50211;52.768;12.124;2023-04-28T01:40:10;4.07;;;2.60;;
64011;SDS011;50211;52.768;12.124;2023-04-28T01:42:36;7.03;;;2.70;;
64011;SDS011;50211;52.768;12.124;2023-04-28T01:45:02;7.87;;;3.00;;
64011;SDS011;50211;52.768;12.124;2023-04-28T01:47:29;5.43;;;2.63;;
64011;SDS011;50211;52.768;12.124;2023-04-28T01:49:54;5.00;;;2.80;;
64011;SDS011;50211;52.768;12.124;2023-04-28T01:52:20;4.73;;;2.60;;
64011;SDS011;50211;52.768;12.124;2023-04-28T01:54:48;4.83;;;2.80;;
64011;SDS011;50211;52.768;12.124;2023-04-28T01:57:14;4.60;;;2.53;;
64011;SDS011;50211;52.768;12.124;2023-04-28T01:59:39;3.90;;;2.43;;
64011;SDS011;50211;52.768;12.124;2023-04-28T02:02:05;6.70;;;2.93;;
64011;SDS011;50211;52.768;12.124;2023-04-28T02:04:30;4.40;;;2.73;;
64011;SDS011;50211;52.768;12.124;2023-04-28T02:06:56;4.60;;;2.70;;
64011;SDS011;50211;52.768;12.124;2023-04-28T02:09:22;3.17;;;2.27;;
64011;SDS011;50211;52.768;12.124;2023-04-28T02:11:48;3.40;;;1.97;;
64011;SDS011;50211;52.768;12.124;2023-04-28T02:14:13;4.97;;;3.10;;
64011;SDS011;50211;52.768;12.124;2023-04-28T02:16:39;3.30;;;2.37;;
64011;SDS011;50211;52.768;12.124;2023-04-28T02:19:04;9.40;;;2.53;;
64011;SDS011;50211;52.768;12.124;2023-04-28T02:21:30;3.33;;;2.27;;
64011;SDS011;50211;52.768;12.124;2023-04-28T02:23:55;4.77;;;2.60;;
64011;SDS011;50211;52.768;12.124;2023-04-28T02:26:21;3.47;;;2.30;;
64011;SDS011;50211;52.768;12.124;2023-04-28T02:28:47;3.03;;;2.40;;
64011;SDS011;50211;52.768;12.124;2023-04-28T02:31:13;3.83;;;2.40;;
64011;SDS011;50211;52.768;12.124;2023-04-28T02:33:39;5.13;;;2.70;;
64011;SDS011;50211;52.768;12.124;2023-04-28T02:36:06;3.73;;;2.37;;
64011;SDS011;50211;52.768;12.124;2023-04-28T02:38:32;6.90;;;2.87;;
64011;SDS011;50211;52.768;12.124;2023-04-28T02:40:58;4.27;;;2.70;;
64011;SDS011;50211;52.768;12.124;2023-04-28T02:43:29;11.03;;;2.20;;
64011;SDS011;50211;52.768;12.124;2023-04-28T02:45:55;4.17;;;2.77;;
64011;SDS011;50211;52.768;12.124;2023-04-28T02:48:20;3.03;;;2.10;;
64011;SDS011;50211;52.768;12.124;2023-04-28T02:50:46;3.73;;;2.30;;
64011;SDS011;50211;52.768;12.124;2023-04-28T02:53:12;4.37;;;3.20;;
64011;SDS011;50211;52.768;12.124;2023-04-28T02:55:37;3.27;;;2.33;;
64011;SDS011;50211;52.768;12.124;2023-04-28T02:58:03;3.60;;;2.47;;
64011;SDS011;50211;52.768;12.124;2023-04-28T03:00:28;4.10;;;2.40;;
64011;SDS011;50211;52.768;12.124;2023-04-28T03:02:54;6.73;;;2.57;;
64011;SDS011;50211;52.768;12.124;2023-04-28T03:05:20;4.13;;;2.37;;
64011;SDS011;50211;52.768;12.124;2023-04-28T03:07:45;4.93;;;2.20;;
64011;SDS011;50211;52.768;12.124;2023-04-28T03:10:11;6.47;;;2.20;;
64011;SDS011;50211;52.768;12.124;2023-04-28T03:12:36;8.23;;;2.27;;
64011;SDS011;50211;52.768;12.124;2023-04-28T03:15:02;2.77;;;2.00;;
64011;SDS011;50211;52.768;12.124;2023-04-28T03:17:27;8.67;;;2.13;;
64011;SDS011;50211;52.768;12.124;2023-04-28T03:19:53;6.57;;;2.40;;
64011;SDS011;50211;52.768;12.124;2023-04-28T03:22:19;3.27;;;2.00;;
64011;SDS011;50211;52.768;12.124;2023-04-28T03:24:44;8.90;;;2.80;;
64011;SDS011;50211;52.768;12.124;2023-04-28T03:27:10;4.80;;;2.37;;
64011;SDS011;50211;52.768;12.124;2023-04-28T03:29:36;4.20;;;2.00;;
64011;SDS011;50211;52.768;12.124;2023-04-28T03:32:01;3.27;;;2.00;;
64011;SDS011;50211;52.768;12.124;2023-04-28T03:34:27;4.17;;;2.00;;
64011;SDS011;50211;52.768;12.124;2023-04-28T03:36:52;3.57;;;2.57;;
64011;SDS011;50211;52.768;12.124;2023-04-28T03:39:18;4.03;;;2.40;;
64011;SDS011;50211;52.768;12.124;2023-04-28T03:41:43;4.73;;;2.13;;
64011;SDS011;50211;52.768;12.124;2023-04-28T03:44:09;8.17;;;2.40;;
64011;SDS011;50211;52.768;12.124;2023-04-28T03:46:34;7.93;;;2.20;;
64011;SDS011;50211;52.768;12.124;2023-04-28T03:49:00;2.57;;;2.07;;
64011;SDS011;50211;52.768;12.124;2023-04-28T03:51:28;4.20;;;2.33;;
64011;SDS011;50211;52.768;12.124;2023-04-28T03:53:54;3.97;;;2.60;;
64011;SDS011;50211;52.768;12.124;2023-04-28T03:56:20;3.30;;;2.00;;
64011;SDS011;50211;52.768;12.124;2023-04-28T03:58:45;3.33;;;2.33;;
64011;SDS011;50211;52.768;12.124;2023-04-28T04:01:11;5.23;;;2.53;;
64011;SDS011;50211;52.768;12.124;2023-04-28T04:03:36;4.00;;;2.20;;
64011;SDS011;50211;52.768;12.124;2023-04-28T04:06:02;4.00;;;2.33;;
64011;SDS011;50211;52.768;12.124;2023-04-28T04:08:28;5.07;;;3.03;;
64011;SDS011;50211;52.768;12.124;2023-04-28T04:10:54;7.30;;;2.87;;
64011;SDS011;50211;52.768;12.124;2023-04-28T04:13:20;3.07;;;1.83;;
64011;SDS011;50211;52.768;12.124;2023-04-28T04:15:46;2.40;;;2.13;;
64011;SDS011;50211;52.768;12.124;2023-04-28T04:18:11;3.23;;;2.20;;
64011;SDS011;50211;52.768;12.124;2023-04-28T04:20:38;4.57;;;2.57;;
64011;SDS011;50211;52.768;12.124;2023-04-28T04:23:04;4.97;;;2.20;;
64011;SDS011;50211;52.768;12.124;2023-04-28T04:25:29;3.70;;;2.10;;
64011;SDS011;50211;52.768;12.124;2023-04-28T04:27:56;4.67;;;2.50;;
64011;SDS011;50211;52.768;12.124;2023-04-28T04:30:21;5.10;;;2.30;;
64011;SDS011;50211;52.768;12.124;2023-04-28T04:32:47;2.90;;;2.07;;
64011;SDS011;50211;52.768;12.124;2023-04-28T04:35:12;3.13;;;2.07;;
64011;SDS011;50211;52.768;12.124;2023-04-28T04:37:38;3.20;;;2.20;;
64011;SDS011;50211;52.768;12.124;2023-04-28T04:40:04;4.33;;;2.47;;
64011;SDS011;50211;52.768;12.124;2023-04-28T04:42:30;3.73;;;2.13;;
64011;SDS011;50211;52.768;12.124;2023-04-28T04:44:56;6.73;;;2.47;;
64011;SDS011;50211;52.768;12.124;2023-04-28T04:47:21;6.87;;;2.70;;
64011;SDS011;50211;52.768;12.124;2023-04-28T04:49:47;5.60;;;2.37;;
64011;SDS011;50211;52.768;12.124;2023-04-28T04:52:14;4.20;;;2.43;;
64011;SDS011;50211;52.768;12.124;2023-04-28T04:54:39;3.47;;;1.90;;
64011;SDS011;50211;52.768;12.124;2023-04-28T04:57:05;2.37;;;1.83;;
64011;SDS011;50211;52.768;12.124;2023-04-28T04:59:31;5.47;;;2.53;;
64011;SDS011;50211;52.768;12.124;2023-04-28T05:01:56;5.67;;;2.40;;
64011;SDS011;50211;52.768;12.124;2023-04-28T05:04:22;6.03;;;2.53;;
64011;SDS011;50211;52.768;12.124;2023-04-28T05:06:47;4.40;;;2.07;;
64011;SDS011;50211;52.768;12.124;2023-04-28T05:09:13;3.63;;;2.13;;
64011;SDS011;50211;52.768;12.124;2023-04-28T05:11:38;4.03;;;2.33;;
64011;SDS011;50211;52.768;12.124;2023-04-28T05:14:04;9.27;;;2.70;;
64011;SDS011;50211;52.768;12.124;2023-04-28T05:16:30;7.40;;;2.50;;
64011;SDS011;50211;52.768;12.124;2023-04-28T05:18:55;4.30;;;2.87;;
64011;SDS011;50211;52.768;12.124;2023-04-28T05:21:21;5.63;;;2.70;;
64011;SDS011;50211;52.768;12.124;2023-04-28T05:23:46;5.57;;;2.93;;
64011;SDS011;50211;52.768;12.124;2023-04-28T05:26:11;6.23;;;2.77;;
64011;SDS011;50211;52.768;12.124;2023-04-28T05:28:38;3.30;;;2.57;;
64011;SDS011;50211;52.768;12.124;2023-04-28T05:31:05;4.23;;;2.47;;
64011;SDS011;50211;52.768;12.124;2023-04-28T05:33:30;5.27;;;2.60;;
64011;SDS011;50211;52.768;12.124;2023-04-28T05:35:56;6.33;;;3.07;;
64011;SDS011;50211;52.768;12.124;2023-04-28T05:38:21;6.63;;;2.63;;
64011;SDS011;50211;52.768;12.124;2023-04-28T05:40:47;6.40;;;3.43;;
64011;SDS011;50211;52.768;12.124;2023-04-28T05:43:12;7.33;;;3.00;;
64011;SDS011;50211;52.768;12.124;2023-04-28T05:45:38;9.30;;;3.03;;
64011;SDS011;50211;52.768;12.124;2023-04-28T05:48:04;6.77;;;3.33;;
64011;SDS011;50211;52.768;12.124;2023-04-28T05:50:30;7.37;;;2.83;;
64011;SDS011;50211;52.768;12.124;2023-04-28T05:52:55;8.03;;;3.40;;
64011;SDS011;50211;52.768;12.124;2023-04-28T05:55:21;4.80;;;3.23;;
64011;SDS011;50211;52.768;12.124;2023-04-28T05:57:46;5.60;;;2.83;;
64011;SDS011;50211;52.768;12.124;2023-04-28T06:00:12;6.80;;;3.43;;
64011;SDS011;50211;52.768;12.124;2023-04-28T06:02:38;6.03;;;3.53;;
64011;SDS011;50211;52.768;12.124;2023-04-28T06:05:04;10.80;;;3.07;;
64011;SDS011;50211;52.768;12.124;2023-04-28T06:07:31;7.53;;;3.17;;
64011;SDS011;50211;52.768;12.124;2023-04-28T06:09:56;5.83;;;3.33;;
64011;SDS011;50211;52.768;12.124;2023-04-28T06:12:22;6.73;;;3.40;;
64011;SDS011;50211;52.768;12.124;2023-04-28T06:14:47;5.63;;;3.10;;
64011;SDS011;50211;52.768;12.124;2023-04-28T06:17:13;5.50;;;3.10;;
64011;SDS011;50211;52.768;12.124;2023-04-28T06:19:38;8.40;;;3.90;;
64011;SDS011;50211;52.768;12.124;2023-04-28T06:22:04;11.10;;;4.07;;
64011;SDS011;50211;52.768;12.124;2023-04-28T06:24:29;5.47;;;3.33;;
64011;SDS011;50211;52.768;12.124;2023-04-28T06:26:55;13.87;;;4.00;;
64011;SDS011;50211;52.768;12.124;2023-04-28T06:29:21;6.07;;;3.50;;
64011;SDS011;50211;52.768;12.124;2023-04-28T06:31:48;6.13;;;3.70;;
64011;SDS011;50211;52.768;12.124;2023-04-28T06:34:13;7.00;;;3.70;;
64011;SDS011;50211;52.768;12.124;2023-04-28T06:36:39;6.13;;;3.90;;
64011;SDS011;50211;52.768;12.124;2023-04-28T06:39:04;9.07;;;4.47;;
64011;SDS011;50211;52.768;12.124;2023-04-28T06:41:30;8.23;;;4.00;;
64011;SDS011;50211;52.768;12.124;2023-04-28T06:43:56;4.37;;;3.40;;
64011;SDS011;50211;52.768;12.124;2023-04-28T06:46:21;5.57;;;3.80;;
64011;SDS011;50211;52.768;12.124;2023-04-28T06:48:47;6.57;;;4.10;;
64011;SDS011;50211;52.768;12.124;2023-04-28T06:51:13;5.93;;;3.93;;
64011;SDS011;50211;52.768;12.124;2023-04-28T06:53:38;9.37;;;3.90;;
64011;SDS011;50211;52.768;12.124;2023-04-28T06:56:04;6.50;;;4.00;;
64011;SDS011;50211;52.768;12.124;2023-04-28T06:58:30;7.87;;;4.00;;
64011;SDS011;50211;52.768;12.124;2023-04-28T07:00:56;5.57;;;2.97;;
64011;SDS011;50211;52.768;12.124;2023-04-28T07:03:21;6.13;;;3.93;;
64011;SDS011;50211;52.768;12.124;2023-04-28T07:05:47;7.50;;;3.53;;
64011;SDS011;50211;52.768;12.124;2023-04-28T07:08:12;5.00;;;3.20;;
64011;SDS011;50211;52.768;12.124;2023-04-28T07:10:38;7.20;;;3.30;;
64011;SDS011;50211;52.768;12.124;2023-04-28T07:13:03;7.27;;;2.93;;
64011;SDS011;50211;52.768;12.124;2023-04-28T07:15:29;5.83;;;3.27;;
64011;SDS011;50211;52.768;12.124;2023-04-28T07:17:55;7.30;;;3.13;;
64011;SDS011;50211;52.768;12.124;2023-04-28T07:20:21;7.90;;;3.20;;
64011;SDS011;50211;52.768;12.124;2023-04-28T07:22:46;7.53;;;3.27;;
64011;SDS011;50211;52.768;12.124;2023-04-28T07:25:12;3.03;;;2.47;;
64011;SDS011;50211;52.768;12.124;2023-04-28T07:27:37;13.03;;;3.90;;
64011;SDS011;50211;52.768;12.124;2023-04-28T07:30:03;5.17;;;3.13;;
64011;SDS011;50211;52.768;12.124;2023-04-28T07:32:29;7.20;;;3.40;;
64011;SDS011;50211;52.768;12.124;2023-04-28T07:34:55;7.13;;;3.30;;
64011;SDS011;50211;52.768;12.124;2023-04-28T07:37:20;5.95;;;3.30;;
64011;SDS011;50211;52.768;12.124;2023-04-28T07:39:46;8.40;;;3.50;;
64011;SDS011;50211;52.768;12.124;2023-04-28T07:42:11;6.53;;;2.72;;
64011;SDS011;50211;52.768;12.124;2023-04-28T07:44:37;5.80;;;2.95;;
64011;SDS011;50211;52.768;12.124;2023-04-28T07:47:02;4.38;;;2.90;;
64011;SDS011;50211;52.768;12.124;2023-04-28T07:49:28;6.97;;;3.15;;
64011;SDS011;50211;52.768;12.124;2023-04-28T07:51:54;6.57;;;3.55;;
64011;SDS011;50211;52.768;12.124;2023-04-28T07:54:20;7.47;;;3.37;;
64011;SDS011;50211;52.768;12.124;2023-04-28T07:56:46;5.75;;;3.38;;
64011;SDS011;50211;52.768;12.124;2023-04-28T07:59:12;9.13;;;3.65;;
64011;SDS011;50211;52.768;12.124;2023-04-28T08:01:37;7.93;;;3.17;;
64011;SDS011;50211;52.768;12.124;2023-04-28T08:04:03;7.28;;;3.50;;
64011;SDS011;50211;52.768;12.124;2023-04-28T08:06:28;8.00;;;3.45;;
64011;SDS011;50211;52.768;12.124;2023-04-28T08:08:54;4.70;;;3.28;;
64011;SDS011;50211;52.768;12.124;2023-04-28T08:11:19;4.97;;;3.22;;
64011;SDS011;50211;52.768;12.124;2023-04-28T08:13:46;6.95;;;3.28;;
64011;SDS011;50211;52.768;12.124;2023-04-28T08:16:12;9.32;;;3.22;;
64011;SDS011;50211;52.768;12.124;2023-04-28T08:18:38;9.43;;;3.75;;
64011;SDS011;50211;52.768;12.124;2023-04-28T08:21:04;10.20;;;3.35;;
64011;SDS011;50211;52.768;12.124;2023-04-28T08:23:30;7.03;;;3.40;;
64011;SDS011;50211;52.768;12.124;2023-04-28T08:25:56;9.65;;;3.80;;
64011;SDS011;50211;52.768;12.124;2023-04-28T08:28:22;9.02;;;3.47;;
64011;SDS011;50211;52.768;12.124;2023-04-28T08:30:47;4.80;;;3.03;;
64011;SDS011;50211;52.768;12.124;2023-04-28T08:33:13;7.25;;;3.38;;
64011;SDS011;50211;52.768;12.124;2023-04-28T08:35:38;4.97;;;3.00;;
64011;SDS011;50211;52.768;12.124;2023-04-28T08:38:05;6.78;;;3.17;;
64011;SDS011;50211;52.768;12.124;2023-04-28T08:40:31;8.75;;;3.50;;
64011;SDS011;50211;52.768;12.124;2023-04-28T08:42:56;7.85;;;3.00;;
64011;SDS011;50211;52.768;12.124;2023-04-28T08:45:23;9.75;;;3.63;;
64011;SDS011;50211;52.768;12.124;2023-04-28T08:47:50;8.68;;;3.15;;
64011;SDS011;50211;52.768;12.124;2023-04-28T08:50:18;8.07;;;3.20;;
64011;SDS011;50211;52.768;12.124;2023-04-28T08:52:46;11.18;;;3.70;;
64011;SDS011;50211;52.768;12.124;2023-04-28T08:55:12;7.22;;;3.28;;
64011;SDS011;50211;52.768;12.124;2023-04-28T08:57:38;5.75;;;3.45;;
64011;SDS011;50211;52.768;12.124;2023-04-28T09:00:10;7.63;;;3.53;;
64011;SDS011;50211;52.768;12.124;2023-04-28T09:02:36;11.50;;;3.90;;
64011;SDS011;50211;52.768;12.124;2023-04-28T09:05:06;6.05;;;3.50;;
64011;SDS011;50211;52.768;12.124;2023-04-28T09:07:32;7.90;;;3.50;;
64011;SDS011;50211;52.768;12.124;2023-04-28T09:10:14;5.95;;;3.50;;
64011;SDS011;50211;52.768;12.124;2023-04-28T09:12:43;6.93;;;3.40;;
64011;SDS011;50211;52.768;12.124;2023-04-28T09:15:08;6.95;;;3.45;;
64011;SDS011;50211;52.768;12.124;2023-04-28T09:17:50;6.07;;;3.75;;
64011;SDS011;50211;52.768;12.124;2023-04-28T09:20:22;7.93;;;3.65;;
64011;SDS011;50211;52.768;12.124;2023-04-28T09:22:49;6.35;;;3.70;;
64011;SDS011;50211;52.768;12.124;2023-04-28T09:25:16;8.57;;;3.88;;
64011;SDS011;50211;52.768;12.124;2023-04-28T09:27:42;7.95;;;4.15;;
64011;SDS011;50211;52.768;12.124;2023-04-28T09:30:08;5.78;;;3.28;;
64011;SDS011;50211;52.768;12.124;2023-04-28T09:32:34;8.65;;;3.90;;
64011;SDS011;50211;52.768;12.124;2023-04-28T09:35:00;7.65;;;4.13;;
64011;SDS011;50211;52.768;12.124;2023-04-28T09:37:26;8.68;;;4.40;;
64011;SDS011;50211;52.768;12.124;2023-04-28T09:39:54;10.13;;;4.30;;
64011;SDS011;50211;52.768;12.124;2023-04-28T09:42:29;9.95;;;4.28;;
64011;SDS011;50211;52.768;12.124;2023-04-28T09:45:02;11.30;;;4.35;;
64011;SDS011;50211;52.768;12.124;2023-04-28T09:47:29;8.70;;;4.40;;
64011;SDS011;50211;52.768;12.124;2023-04-28T09:49:58;9.80;;;4.40;;
64011;SDS011;50211;52.768;12.124;2023-04-28T09:52:24;11.13;;;4.93;;
64011;SDS011;50211;52.768;12.124;2023-04-28T09:54:52;8.05;;;4.50;;
64011;SDS011;50211;52.768;12.124;2023-04-28T09:57:19;8.95;;;4.05;;
64011;SDS011;50211;52.768;12.124;2023-04-28T09:59:46;9.02;;;4.57;;
64011;SDS011;50211;52.768;12.124;2023-04-28T10:02:14;8.80;;;4.78;;
64011;SDS011;50211;52.768;12.124;2023-04-28T10:04:44;10.15;;;3.90;;
64011;SDS011;50211;52.768;12.124;2023-04-28T10:07:11;10.65;;;4.65;;
64011;SDS011;50211;52.768;12.124;2023-04-28T10:09:38;11.52;;;5.00;;
64011;SDS011;50211;52.768;12.124;2023-04-28T10:12:04;9.60;;;4.80;;
64011;SDS011;50211;52.768;12.124;2023-04-28T10:14:30;7.45;;;4.20;;
64011;SDS011;50211;52.768;12.124;2023-04-28T10:16:57;8.88;;;4.80;;
64011;SDS011;50211;52.768;12.124;2023-04-28T10:19:23;4.70;;;3.92;;
64011;SDS011;50211;52.768;12.124;2023-04-28T10:21:53;6.25;;;3.78;;
64011;SDS011;50211;52.768;12.124;2023-04-28T10:24:30;7.60;;;4.43;;
64011;SDS011;50211;52.768;12.124;2023-04-28T10:27:07;8.00;;;4.85;;
64011;SDS011;50211;52.768;12.124;2023-04-28T10:29:33;8.80;;;4.70;;
64011;SDS011;50211;52.768;12.124;2023-04-28T10:32:15;13.27;;;4.85;;
64011;SDS011;50211;52.768;12.124;2023-04-28T10:34:42;10.85;;;5.20;;
64011;SDS011;50211;52.768;12.124;2023-04-28T10:37:08;7.25;;;4.78;;
64011;SDS011;50211;52.768;12.124;2023-04-28T10:39:34;7.97;;;4.38;;
64011;SDS011;50211;52.768;12.124;2023-04-28T10:42:00;7.85;;;4.45;;
64011;SDS011;50211;52.768;12.124;2023-04-28T10:47:04;15.82;;;5.35;;
64011;SDS011;50211;52.768;12.124;2023-04-28T10:55:41;12.70;;;4.95;;
64011;SDS011;50211;52.768;12.124;2023-04-28T11:00:40;9.07;;;4.78;;
64011;SDS011;50211;52.768;12.124;2023-04-28T11:03:06;8.63;;;4.88;;
64011;SDS011;50211;52.768;12.124;2023-04-28T11:05:32;10.25;;;5.00;;
64011;SDS011;50211;52.768;12.124;2023-04-28T11:11:10;16.73;;;5.00;;
64011;SDS011;50211;52.768;12.124;2023-04-28T11:13:39;10.73;;;5.22;;
64011;SDS011;50211;52.768;12.124;2023-04-28T11:16:05;11.23;;;4.78;;
64011;SDS011;50211;52.768;12.124;2023-04-28T11:18:40;11.63;;;4.65;;
64011;SDS011;50211;52.768;12.124;2023-04-28T11:21:16;11.55;;;5.05;;
64011;SDS011;50211;52.768;12.124;2023-04-28T11:23:42;8.68;;;3.95;;
64011;SDS011;50211;52.768;12.124;2023-04-28T11:26:08;9.93;;;4.85;;
64011;SDS011;50211;52.768;12.124;2023-04-28T11:28:34;9.70;;;4.72;;
64011;SDS011;50211;52.768;12.124;2023-04-28T11:31:14;11.25;;;5.47;;
64011;SDS011;50211;52.768;12.124;2023-04-28T11:33:47;10.40;;;5.00;;
64011;SDS011;50211;52.768;12.124;2023-04-28T11:36:29;8.00;;;4.35;;
64011;SDS011;50211;52.768;12.124;2023-04-28T11:38:56;9.32;;;4.65;;
64011;SDS011;50211;52.768;12.124;2023-04-28T11:41:22;8.32;;;4.45;;
64011;SDS011;50211;52.768;12.124;2023-04-28T11:43:49;17.67;;;4.80;;
64011;SDS011;50211;52.768;12.124;2023-04-28T11:46:18;9.95;;;5.10;;
64011;SDS011;50211;52.768;12.124;2023-04-28T11:48:46;12.02;;;5.15;;
64011;SDS011;50211;52.768;12.124;2023-04-28T11:54:16;8.32;;;4.80;;
64011;SDS011;50211;52.768;12.124;2023-04-28T11:56:48;10.30;;;4.90;;
64011;SDS011;50211;52.768;12.124;2023-04-28T11:59:14;11.68;;;5.78;;
64011;SDS011;50211;52.768;12.124;2023-04-28T12:01:43;11.93;;;4.90;;
64011;SDS011;50211;52.768;12.124;2023-04-28T12:04:12;15.55;;;5.20;;
64011;SDS011;50211;52.768;12.124;2023-04-28T12:06:39;9.90;;;4.68;;
64011;SDS011;50211;52.768;12.124;2023-04-28T12:09:15;16.30;;;5.68;;
64011;SDS011;50211;52.768;12.124;2023-04-28T12:11:51;10.95;;;4.88;;
64011;SDS011;50211;52.768;12.124;2023-04-28T12:14:18;11.35;;;4.97;;
64011;SDS011;50211;52.768;12.124;2023-04-28T12:16:44;13.07;;;5.22;;
64011;SDS011;50211;52.768;12.124;2023-04-28T12:19:12;7.82;;;4.50;;
64011;SDS011;50211;52.768;12.124;2023-04-28T12:21:39;7.45;;;4.18;;
64011;SDS011;50211;52.768;12.124;2023-04-28T12:24:20;12.77;;;4.45;;
64011;SDS011;50211;52.768;12.124;2023-04-28T12:26:47;8.10;;;4.47;;
64011;SDS011;50211;52.768;12.124;2023-04-28T12:32:07;8.45;;;4.95;;
64011;SDS011;50211;52.768;12.124;2023-04-28T12:34:35;7.68;;;4.35;;
64011;SDS011;50211;52.768;12.124;2023-04-28T12:37:01;7.20;;;4.38;;
64011;SDS011;50211;52.768;12.124;2023-04-28T12:39:31;9.57;;;4.60;;
64011;SDS011;50211;52.768;12.124;2023-04-28T12:41:58;10.68;;;4.25;;
64011;SDS011;50211;52.768;12.124;2023-04-28T12:44:24;12.35;;;5.40;;
64011;SDS011;50211;52.768;12.124;2023-04-28T12:46:50;9.77;;;5.07;;
64011;SDS011;50211;52.768;12.124;2023-04-28T12:49:16;7.75;;;4.80;;
64011;SDS011;50211;52.768;12.124;2023-04-28T12:51:41;12.20;;;4.35;;
64011;SDS011;50211;52.768;12.124;2023-04-28T12:54:07;8.20;;;4.38;;
64011;SDS011;50211;52.768;12.124;2023-04-28T12:56:33;10.02;;;4.88;;
64011;SDS011;50211;52.768;12.124;2023-04-28T12:58:58;11.65;;;4.90;;
64011;SDS011;50211;52.768;12.124;2023-04-28T13:01:26;7.80;;;4.30;;
64011;SDS011;50211;52.768;12.124;2023-04-28T13:03:52;7.38;;;4.30;;
64011;SDS011;50211;52.768;12.124;2023-04-28T13:06:18;11.50;;;4.63;;
64011;SDS011;50211;52.768;12.124;2023-04-28T13:08:44;7.97;;;4.35;;
64011;SDS011;50211;52.768;12.124;2023-04-28T13:11:10;9.65;;;5.05;;
64011;SDS011;50211;52.768;12.124;2023-04-28T13:13:35;9.70;;;4.25;;
64011;SDS011;50211;52.768;12.124;2023-04-28T13:16:01;9.02;;;4.40;;
64011;SDS011;50211;52.768;12.124;2023-04-28T13:18:28;11.32;;;4.20;;
64011;SDS011;50211;52.768;12.124;2023-04-28T13:20:54;9.60;;;3.78;;
64011;SDS011;50211;52.768;12.124;2023-04-28T13:23:20;10.30;;;3.88;;
64011;SDS011;50211;52.768;12.124;2023-04-28T13:25:45;9.38;;;4.55;;
64011;SDS011;50211;52.768;12.124;2023-04-28T13:28:11;6.85;;;3.80;;
64011;SDS011;50211;52.768;12.124;2023-04-28T13:30:37;9.32;;;3.92;;
64011;SDS011;50211;52.768;12.124;2023-04-28T13:33:02;6.57;;;3.85;;
64011;SDS011;50211;52.768;12.124;2023-04-28T13:35:28;4.85;;;3.63;;
64011;SDS011;50211;52.768;12.124;2023-04-28T13:37:53;7.03;;;3.58;;
64011;SDS011;50211;52.768;12.124;2023-04-28T13:40:25;8.40;;;3.78;;
64011;SDS011;50211;52.768;12.124;2023-04-28T13:42:51;7.05;;;3.53;;
64011;SDS011;50211;52.768;12.124;2023-04-28T13:45:17;8.45;;;3.97;;
64011;SDS011;50211;52.768;12.124;2023-04-28T13:47:42;8.18;;;4.00;;
64011;SDS011;50211;52.768;12.124;2023-04-28T13:50:07;6.57;;;4.07;;
64011;SDS011;50211;52.768;12.124;2023-04-28T13:52:33;7.80;;;3.70;;
64011;SDS011;50211;52.768;12.124;2023-04-28T13:54:58;7.75;;;3.85;;
64011;SDS011;50211;52.768;12.124;2023-04-28T13:57:24;11.75;;;4.35;;
64011;SDS011;50211;52.768;12.124;2023-04-28T13:59:50;7.20;;;4.35;;
64011;SDS011;50211;52.768;12.124;2023-04-28T14:02:16;5.35;;;3.63;;
64011;SDS011;50211;52.768;12.124;2023-04-28T14:04:42;6.65;;;3.78;;
64011;SDS011;50211;52.768;12.124;2023-04-28T14:07:12;9.45;;;3.80;;
64011;SDS011;50211;52.768;12.124;2023-04-28T14:09:38;8.80;;;4.35;;
64011;SDS011;50211;52.768;12.124;2023-04-28T14:12:04;12.70;;;4.22;;
64011;SDS011;50211;52.768;12.124;2023-04-28T14:14:30;9.93;;;4.57;;
64011;SDS011;50211;52.768;12.124;2023-04-28T14:16:56;10.73;;;3.80;;
64011;SDS011;50211;52.768;12.124;2023-04-28T14:19:22;9.82;;;4.32;;
64011;SDS011;50211;52.768;12.124;2023-04-28T14:21:50;10.48;;;4.28;;
64011;SDS011;50211;52.768;12.124;2023-04-28T14:24:16;11.50;;;4.25;;
64011;SDS011;50211;52.768;12.124;2023-04-28T14:26:42;8.23;;;3.95;;
64011;SDS011;50211;52.768;12.124;2023-04-28T14:29:08;11.43;;;3.97;;
64011;SDS011;50211;52.768;12.124;2023-04-28T14:31:33;7.60;;;3.55;;
64011;SDS011;50211;52.768;12.124;2023-04-28T14:33:59;9.02;;;4.07;;
64011;SDS011;50211;52.768;12.124;2023-04-28T14:36:25;10.23;;;3.85;;
64011;SDS011;50211;52.768;12.124;2023-04-28T14:38:51;9.57;;;3.80;;
64011;SDS011;50211;52.768;12.124;2023-04-28T14:41:16;8.02;;;4.43;;
64011;SDS011;50211;52.768;12.124;2023-04-28T14:43:42;8.07;;;3.80;;
64011;SDS011;50211;52.768;12.124;2023-04-28T14:46:09;7.18;;;3.97;;
64011;SDS011;50211;52.768;12.124;2023-04-28T14:48:35;10.60;;;4.25;;